sensor_id;sensor_type;location;lat;lon;timestamp;P1;durP1;ratioP1;P2;durP2;ratioP2
37087;SDS011;23002;52.676;6.432;2023-11-19T00:02:19;38.28;;;16.13;;
37087;SDS011;23002;52.676;6.432;2023-11-19T00:04:47;34.90;;;16.05;;
37087;SDS011;23002;52.676;6.432;2023-11-19T00:07:14;36.90;;;17.45;;
37087;SDS011;23002;52.676;6.432;2023-11-19T00:09:43;35.45;;;16.48;;
37087;SDS011;23002;52.676;6.432;2023-11-19T00:12:10;33.55;;;15.45;;
37087;SDS011;23002;52.676;6.432;2023-11-19T00:14:37;34.50;;;15.98;;
37087;SDS011;23002;52.676;6.432;2023-11-19T00:17:04;41.92;;;16.67;;
37087;SDS011;23002;52.676;6.432;2023-11-19T00:19:32;34.97;;;16.00;;
37087;SDS011;23002;52.676;6.432;2023-11-19T00:21:59;37.70;;;15.90;;
37087;SDS011;23002;52.676;6.432;2023-11-19T00:24:30;33.80;;;14.45;;
37087;SDS011;23002;52.676;6.432;2023-11-19T00:26:58;39.05;;;15.35;;
37087;SDS011;23002;52.676;6.432;2023-11-19T00:29:25;28.75;;;14.18;;
37087;SDS011;23002;52.676;6.432;2023-11-19T00:31:52;32.05;;;14.07;;
37087;SDS011;23002;52.676;6.432;2023-11-19T00:34:19;32.88;;;13.25;;
37087;SDS011;23002;52.676;6.432;2023-11-19T00:36:48;30.15;;;13.45;;
37087;SDS011;23002;52.676;6.432;2023-11-19T00:39:15;27.52;;;12.55;;
37087;SDS011;23002;52.676;6.432;2023-11-19T00:41:44;35.33;;;12.60;;
37087;SDS011;23002;52.676;6.432;2023-11-19T00:44:12;38.50;;;11.60;;
37087;SDS011;23002;52.676;6.432;2023-11-19T00:46:39;30.90;;;11.65;;
37087;SDS011;23002;52.676;6.432;2023-11-19T00:49:06;28.45;;;9.93;;
37087;SDS011;23002;52.676;6.432;2023-11-19T00:51:34;27.70;;;10.07;;
37087;SDS011;23002;52.676;6.432;2023-11-19T00:54:01;23.10;;;9.38;;
37087;SDS011;23002;52.676;6.432;2023-11-19T00:56:28;31.48;;;10.05;;
37087;SDS011;23002;52.676;6.432;2023-11-19T00:58:55;26.85;;;9.25;;
37087;SDS011;23002;52.676;6.432;2023-11-19T01:01:22;25.42;;;8.93;;
37087;SDS011;23002;52.676;6.432;2023-11-19T01:03:50;27.35;;;8.00;;
37087;SDS011;23002;52.676;6.432;2023-11-19T01:06:26;22.70;;;8.63;;
37087;SDS011;23002;52.676;6.432;2023-11-19T01:08:53;30.00;;;9.35;;
37087;SDS011;23002;52.676;6.432;2023-11-19T01:11:21;22.80;;;7.95;;
37087;SDS011;23002;52.676;6.432;2023-11-19T01:13:48;31.85;;;8.10;;
37087;SDS011;23002;52.676;6.432;2023-11-19T01:16:15;24.40;;;7.80;;
37087;SDS011;23002;52.676;6.432;2023-11-19T01:18:43;28.10;;;7.40;;
37087;SDS011;23002;52.676;6.432;2023-11-19T01:21:10;19.92;;;6.72;;
37087;SDS011;23002;52.676;6.432;2023-11-19T01:23:39;20.33;;;7.10;;
37087;SDS011;23002;52.676;6.432;2023-11-19T01:26:06;22.27;;;6.45;;
37087;SDS011;23002;52.676;6.432;2023-11-19T01:28:36;22.23;;;7.32;;
37087;SDS011;23002;52.676;6.432;2023-11-19T01:31:17;22.80;;;6.25;;
37087;SDS011;23002;52.676;6.432;2023-11-19T01:33:44;17.92;;;5.95;;
37087;SDS011;23002;52.676;6.432;2023-11-19T01:36:13;20.75;;;6.00;;
37087;SDS011;23002;52.676;6.432;2023-11-19T01:38:40;23.98;;;7.22;;
37087;SDS011;23002;52.676;6.432;2023-11-19T01:41:07;28.83;;;6.55;;
37087;SDS011;23002;52.676;6.432;2023-11-19T01:43:35;18.88;;;5.50;;
37087;SDS011;23002;52.676;6.432;2023-11-19T01:46:02;17.63;;;5.32;;
37087;SDS011;23002;52.676;6.432;2023-11-19T01:48:30;21.20;;;6.47;;
37087;SDS011;23002;52.676;6.432;2023-11-19T01:50:58;20.58;;;5.85;;
37087;SDS011;23002;52.676;6.432;2023-11-19T01:53:28;27.70;;;5.60;;
37087;SDS011;23002;52.676;6.432;2023-11-19T01:55:56;28.58;;;5.28;;
37087;SDS011;23002;52.676;6.432;2023-11-19T01:58:25;29.20;;;5.50;;
37087;SDS011;23002;52.676;6.432;2023-11-19T02:00:52;26.02;;;4.82;;
37087;SDS011;23002;52.676;6.432;2023-11-19T02:03:20;27.67;;;5.13;;
37087;SDS011;23002;52.676;6.432;2023-11-19T02:05:48;21.30;;;4.95;;
37087;SDS011;23002;52.676;6.432;2023-11-19T02:08:17;22.75;;;4.75;;
37087;SDS011;23002;52.676;6.432;2023-11-19T02:10:44;19.38;;;4.03;;
37087;SDS011;23002;52.676;6.432;2023-11-19T02:13:11;24.05;;;5.07;;
37087;SDS011;23002;52.676;6.432;2023-11-19T02:15:43;21.75;;;4.93;;
37087;SDS011;23002;52.676;6.432;2023-11-19T02:20:48;18.05;;;4.13;;
37087;SDS011;23002;52.676;6.432;2023-11-19T02:23:16;28.02;;;4.78;;
37087;SDS011;23002;52.676;6.432;2023-11-19T02:25:46;21.25;;;4.03;;
37087;SDS011;23002;52.676;6.432;2023-11-19T02:28:16;26.52;;;4.15;;
37087;SDS011;23002;52.676;6.432;2023-11-19T02:30:44;18.15;;;4.07;;
37087;SDS011;23002;52.676;6.432;2023-11-19T02:33:11;18.73;;;3.88;;
37087;SDS011;23002;52.676;6.432;2023-11-19T02:35:39;34.35;;;4.95;;
37087;SDS011;23002;52.676;6.432;2023-11-19T02:38:06;19.38;;;3.80;;
37087;SDS011;23002;52.676;6.432;2023-11-19T02:40:34;22.27;;;3.55;;
37087;SDS011;23002;52.676;6.432;2023-11-19T02:43:01;21.92;;;3.45;;
37087;SDS011;23002;52.676;6.432;2023-11-19T02:45:30;24.40;;;4.10;;
37087;SDS011;23002;52.676;6.432;2023-11-19T02:47:57;21.27;;;3.40;;
37087;SDS011;23002;52.676;6.432;2023-11-19T02:50:28;24.70;;;3.45;;
37087;SDS011;23002;52.676;6.432;2023-11-19T02:52:55;20.38;;;3.35;;
37087;SDS011;23002;52.676;6.432;2023-11-19T02:55:23;20.58;;;3.60;;
37087;SDS011;23002;52.676;6.432;2023-11-19T02:57:51;23.10;;;3.75;;
37087;SDS011;23002;52.676;6.432;2023-11-19T03:00:20;17.50;;;3.30;;
37087;SDS011;23002;52.676;6.432;2023-11-19T03:02:57;16.42;;;3.00;;
37087;SDS011;23002;52.676;6.432;2023-11-19T03:05:26;21.65;;;3.10;;
37087;SDS011;23002;52.676;6.432;2023-11-19T03:07:57;17.33;;;3.50;;
37087;SDS011;23002;52.676;6.432;2023-11-19T03:10:24;15.48;;;3.90;;
37087;SDS011;23002;52.676;6.432;2023-11-19T03:12:51;19.73;;;4.43;;
37087;SDS011;23002;52.676;6.432;2023-11-19T03:15:18;25.17;;;4.18;;
37087;SDS011;23002;52.676;6.432;2023-11-19T03:17:47;23.95;;;3.58;;
37087;SDS011;23002;52.676;6.432;2023-11-19T03:20:14;19.10;;;3.63;;
37087;SDS011;23002;52.676;6.432;2023-11-19T03:22:43;22.02;;;4.00;;
37087;SDS011;23002;52.676;6.432;2023-11-19T03:25:10;22.23;;;3.95;;
37087;SDS011;23002;52.676;6.432;2023-11-19T03:27:37;22.55;;;3.75;;
37087;SDS011;23002;52.676;6.432;2023-11-19T03:30:05;21.85;;;3.88;;
37087;SDS011;23002;52.676;6.432;2023-11-19T03:32:33;29.20;;;3.65;;
37087;SDS011;23002;52.676;6.432;2023-11-19T03:35:02;23.05;;;4.00;;
37087;SDS011;23002;52.676;6.432;2023-11-19T03:37:30;30.27;;;3.70;;
37087;SDS011;23002;52.676;6.432;2023-11-19T03:39:58;25.27;;;3.55;;
37087;SDS011;23002;52.676;6.432;2023-11-19T03:42:28;26.42;;;4.18;;
37087;SDS011;23002;52.676;6.432;2023-11-19T03:44:57;21.85;;;2.65;;
37087;SDS011;23002;52.676;6.432;2023-11-19T03:47:24;21.20;;;3.95;;
37087;SDS011;23002;52.676;6.432;2023-11-19T03:49:51;32.10;;;4.18;;
37087;SDS011;23002;52.676;6.432;2023-11-19T03:52:19;27.92;;;3.42;;
37087;SDS011;23002;52.676;6.432;2023-11-19T03:54:46;23.13;;;4.28;;
37087;SDS011;23002;52.676;6.432;2023-11-19T03:57:14;22.92;;;4.05;;
37087;SDS011;23002;52.676;6.432;2023-11-19T03:59:42;18.52;;;3.42;;
37087;SDS011;23002;52.676;6.432;2023-11-19T04:02:10;27.88;;;3.88;;
37087;SDS011;23002;52.676;6.432;2023-11-19T04:04:37;24.25;;;4.28;;
37087;SDS011;23002;52.676;6.432;2023-11-19T04:07:05;31.08;;;4.75;;
37087;SDS011;23002;52.676;6.432;2023-11-19T04:09:32;24.08;;;3.22;;
37087;SDS011;23002;52.676;6.432;2023-11-19T04:12:00;18.52;;;3.28;;
37087;SDS011;23002;52.676;6.432;2023-11-19T04:14:27;26.63;;;3.92;;
37087;SDS011;23002;52.676;6.432;2023-11-19T04:16:54;23.13;;;3.35;;
37087;SDS011;23002;52.676;6.432;2023-11-19T04:19:21;24.63;;;3.95;;
37087;SDS011;23002;52.676;6.432;2023-11-19T04:21:49;24.60;;;3.88;;
37087;SDS011;23002;52.676;6.432;2023-11-19T04:24:16;24.35;;;4.30;;
37087;SDS011;23002;52.676;6.432;2023-11-19T04:26:43;29.25;;;4.05;;
37087;SDS011;23002;52.676;6.432;2023-11-19T04:29:11;21.83;;;3.50;;
37087;SDS011;23002;52.676;6.432;2023-11-19T04:31:39;25.00;;;3.95;;
37087;SDS011;23002;52.676;6.432;2023-11-19T04:34:06;29.02;;;3.65;;
37087;SDS011;23002;52.676;6.432;2023-11-19T04:36:33;23.83;;;3.58;;
37087;SDS011;23002;52.676;6.432;2023-11-19T04:39:01;29.90;;;3.75;;
37087;SDS011;23002;52.676;6.432;2023-11-19T04:41:28;27.48;;;4.50;;
37087;SDS011;23002;52.676;6.432;2023-11-19T04:43:56;24.23;;;5.30;;
37087;SDS011;23002;52.676;6.432;2023-11-19T04:46:23;30.85;;;4.90;;
37087;SDS011;23002;52.676;6.432;2023-11-19T04:48:50;31.90;;;5.43;;
37087;SDS011;23002;52.676;6.432;2023-11-19T04:51:17;30.02;;;5.18;;
37087;SDS011;23002;52.676;6.432;2023-11-19T04:53:44;28.08;;;4.20;;
37087;SDS011;23002;52.676;6.432;2023-11-19T04:56:12;27.83;;;4.47;;
37087;SDS011;23002;52.676;6.432;2023-11-19T04:58:39;32.42;;;4.57;;
37087;SDS011;23002;52.676;6.432;2023-11-19T05:01:13;32.22;;;3.97;;
37087;SDS011;23002;52.676;6.432;2023-11-19T05:03:42;22.42;;;3.60;;
37087;SDS011;23002;52.676;6.432;2023-11-19T05:06:09;36.40;;;4.32;;
37087;SDS011;23002;52.676;6.432;2023-11-19T05:08:36;23.48;;;3.38;;
37087;SDS011;23002;52.676;6.432;2023-11-19T05:11:03;23.13;;;4.35;;
37087;SDS011;23002;52.676;6.432;2023-11-19T05:13:32;33.38;;;4.50;;
37087;SDS011;23002;52.676;6.432;2023-11-19T05:15:59;27.30;;;3.72;;
37087;SDS011;23002;52.676;6.432;2023-11-19T05:18:26;20.60;;;4.20;;
37087;SDS011;23002;52.676;6.432;2023-11-19T05:20:53;25.70;;;4.40;;
37087;SDS011;23002;52.676;6.432;2023-11-19T05:23:20;23.67;;;3.75;;
37087;SDS011;23002;52.676;6.432;2023-11-19T05:25:48;22.35;;;3.72;;
37087;SDS011;23002;52.676;6.432;2023-11-19T05:28:15;22.75;;;3.33;;
37087;SDS011;23002;52.676;6.432;2023-11-19T05:30:42;24.70;;;4.85;;
37087;SDS011;23002;52.676;6.432;2023-11-19T05:33:10;20.08;;;4.00;;
37087;SDS011;23002;52.676;6.432;2023-11-19T05:35:37;21.65;;;3.10;;
37087;SDS011;23002;52.676;6.432;2023-11-19T05:38:04;29.65;;;5.60;;
37087;SDS011;23002;52.676;6.432;2023-11-19T05:40:32;33.65;;;4.70;;
37087;SDS011;23002;52.676;6.432;2023-11-19T05:42:59;19.67;;;3.72;;
37087;SDS011;23002;52.676;6.432;2023-11-19T05:45:26;29.40;;;4.30;;
37087;SDS011;23002;52.676;6.432;2023-11-19T05:47:53;28.70;;;4.55;;
37087;SDS011;23002;52.676;6.432;2023-11-19T05:50:20;26.35;;;4.57;;
37087;SDS011;23002;52.676;6.432;2023-11-19T05:52:48;24.00;;;3.80;;
37087;SDS011;23002;52.676;6.432;2023-11-19T05:55:15;28.80;;;3.80;;
37087;SDS011;23002;52.676;6.432;2023-11-19T05:57:42;25.50;;;4.50;;
37087;SDS011;23002;52.676;6.432;2023-11-19T06:00:12;24.33;;;3.65;;
37087;SDS011;23002;52.676;6.432;2023-11-19T06:02:42;31.15;;;3.97;;
37087;SDS011;23002;52.676;6.432;2023-11-19T06:05:09;28.80;;;3.88;;
37087;SDS011;23002;52.676;6.432;2023-11-19T06:07:36;29.27;;;4.38;;
37087;SDS011;23002;52.676;6.432;2023-11-19T06:10:05;28.05;;;3.72;;
37087;SDS011;23002;52.676;6.432;2023-11-19T06:12:33;22.42;;;4.30;;
37087;SDS011;23002;52.676;6.432;2023-11-19T06:15:07;31.33;;;3.80;;
37087;SDS011;23002;52.676;6.432;2023-11-19T06:17:34;33.30;;;4.27;;
37087;SDS011;23002;52.676;6.432;2023-11-19T06:20:03;33.33;;;3.97;;
37087;SDS011;23002;52.676;6.432;2023-11-19T06:22:31;27.23;;;4.47;;
37087;SDS011;23002;52.676;6.432;2023-11-19T06:24:58;31.33;;;5.10;;
37087;SDS011;23002;52.676;6.432;2023-11-19T06:27:26;24.98;;;3.55;;
37087;SDS011;23002;52.676;6.432;2023-11-19T06:29:53;33.78;;;4.47;;
37087;SDS011;23002;52.676;6.432;2023-11-19T06:32:20;23.30;;;4.38;;
37087;SDS011;23002;52.676;6.432;2023-11-19T06:34:48;27.83;;;4.10;;
37087;SDS011;23002;52.676;6.432;2023-11-19T06:37:15;25.80;;;4.38;;
37087;SDS011;23002;52.676;6.432;2023-11-19T06:39:42;19.15;;;3.78;;
37087;SDS011;23002;52.676;6.432;2023-11-19T06:42:10;29.08;;;3.80;;
37087;SDS011;23002;52.676;6.432;2023-11-19T06:44:37;28.75;;;4.80;;
37087;SDS011;23002;52.676;6.432;2023-11-19T06:47:04;27.58;;;3.80;;
37087;SDS011;23002;52.676;6.432;2023-11-19T06:49:32;24.30;;;3.95;;
37087;SDS011;23002;52.676;6.432;2023-11-19T06:51:59;30.88;;;4.38;;
37087;SDS011;23002;52.676;6.432;2023-11-19T06:54:26;27.15;;;3.70;;
37087;SDS011;23002;52.676;6.432;2023-11-19T06:56:54;21.38;;;4.22;;
37087;SDS011;23002;52.676;6.432;2023-11-19T06:59:21;24.42;;;3.70;;
37087;SDS011;23002;52.676;6.432;2023-11-19T07:01:48;27.98;;;4.63;;
37087;SDS011;23002;52.676;6.432;2023-11-19T07:04:15;25.73;;;3.65;;
37087;SDS011;23002;52.676;6.432;2023-11-19T07:06:42;28.13;;;4.15;;
37087;SDS011;23002;52.676;6.432;2023-11-19T07:09:09;29.98;;;4.80;;
37087;SDS011;23002;52.676;6.432;2023-11-19T07:11:39;16.98;;;3.70;;
37087;SDS011;23002;52.676;6.432;2023-11-19T07:14:07;24.35;;;4.72;;
37087;SDS011;23002;52.676;6.432;2023-11-19T07:16:35;28.02;;;4.15;;
37087;SDS011;23002;52.676;6.432;2023-11-19T07:19:05;25.95;;;3.88;;
37087;SDS011;23002;52.676;6.432;2023-11-19T07:21:33;26.58;;;4.65;;
37087;SDS011;23002;52.676;6.432;2023-11-19T07:24:00;29.98;;;4.05;;
37087;SDS011;23002;52.676;6.432;2023-11-19T07:26:27;25.92;;;3.80;;
37087;SDS011;23002;52.676;6.432;2023-11-19T07:28:54;28.27;;;4.32;;
37087;SDS011;23002;52.676;6.432;2023-11-19T07:31:22;18.60;;;3.90;;
37087;SDS011;23002;52.676;6.432;2023-11-19T07:33:50;22.95;;;3.80;;
37087;SDS011;23002;52.676;6.432;2023-11-19T07:36:17;25.85;;;3.55;;
37087;SDS011;23002;52.676;6.432;2023-11-19T07:38:45;30.23;;;4.60;;
37087;SDS011;23002;52.676;6.432;2023-11-19T07:41:13;20.80;;;3.53;;
37087;SDS011;23002;52.676;6.432;2023-11-19T07:43:44;19.98;;;3.30;;
37087;SDS011;23002;52.676;6.432;2023-11-19T07:46:13;26.52;;;3.67;;
37087;SDS011;23002;52.676;6.432;2023-11-19T07:48:40;26.50;;;3.92;;
37087;SDS011;23002;52.676;6.432;2023-11-19T07:51:10;31.50;;;4.25;;
37087;SDS011;23002;52.676;6.432;2023-11-19T07:53:38;18.13;;;3.33;;
37087;SDS011;23002;52.676;6.432;2023-11-19T07:56:07;25.58;;;3.05;;
37087;SDS011;23002;52.676;6.432;2023-11-19T07:58:34;22.88;;;3.47;;
37087;SDS011;23002;52.676;6.432;2023-11-19T08:01:01;24.60;;;3.72;;
37087;SDS011;23002;52.676;6.432;2023-11-19T08:03:28;32.22;;;3.63;;
37087;SDS011;23002;52.676;6.432;2023-11-19T08:05:56;25.63;;;3.50;;
37087;SDS011;23002;52.676;6.432;2023-11-19T08:08:23;27.50;;;3.08;;
37087;SDS011;23002;52.676;6.432;2023-11-19T08:10:50;28.55;;;3.78;;
37087;SDS011;23002;52.676;6.432;2023-11-19T08:13:18;23.38;;;3.88;;
37087;SDS011;23002;52.676;6.432;2023-11-19T08:15:47;22.58;;;3.38;;
37087;SDS011;23002;52.676;6.432;2023-11-19T08:18:14;25.98;;;3.83;;
37087;SDS011;23002;52.676;6.432;2023-11-19T08:20:41;26.02;;;3.70;;
37087;SDS011;23002;52.676;6.432;2023-11-19T08:23:10;23.75;;;3.90;;
37087;SDS011;23002;52.676;6.432;2023-11-19T08:25:37;20.35;;;3.50;;
37087;SDS011;23002;52.676;6.432;2023-11-19T08:28:04;24.50;;;4.35;;
37087;SDS011;23002;52.676;6.432;2023-11-19T08:30:32;24.65;;;5.28;;
37087;SDS011;23002;52.676;6.432;2023-11-19T08:32:59;26.67;;;3.55;;
37087;SDS011;23002;52.676;6.432;2023-11-19T08:35:29;34.65;;;4.55;;
37087;SDS011;23002;52.676;6.432;2023-11-19T08:37:56;25.45;;;3.28;;
37087;SDS011;23002;52.676;6.432;2023-11-19T08:40:25;25.08;;;3.35;;
37087;SDS011;23002;52.676;6.432;2023-11-19T08:42:52;21.30;;;3.67;;
37087;SDS011;23002;52.676;6.432;2023-11-19T08:45:19;21.23;;;3.50;;
37087;SDS011;23002;52.676;6.432;2023-11-19T08:47:46;21.77;;;3.70;;
37087;SDS011;23002;52.676;6.432;2023-11-19T08:50:13;26.38;;;3.30;;
37087;SDS011;23002;52.676;6.432;2023-11-19T08:52:41;25.95;;;4.55;;
37087;SDS011;23002;52.676;6.432;2023-11-19T08:55:08;22.15;;;3.65;;
37087;SDS011;23002;52.676;6.432;2023-11-19T08:57:36;27.25;;;4.00;;
37087;SDS011;23002;52.676;6.432;2023-11-19T09:00:03;29.45;;;4.00;;
37087;SDS011;23002;52.676;6.432;2023-11-19T09:02:37;25.00;;;3.77;;
37087;SDS011;23002;52.676;6.432;2023-11-19T09:05:05;25.92;;;4.30;;
37087;SDS011;23002;52.676;6.432;2023-11-19T09:07:34;25.00;;;3.70;;
37087;SDS011;23002;52.676;6.432;2023-11-19T09:10:01;21.05;;;3.65;;
37087;SDS011;23002;52.676;6.432;2023-11-19T09:12:31;22.83;;;4.80;;
37087;SDS011;23002;52.676;6.432;2023-11-19T09:14:58;25.70;;;3.55;;
37087;SDS011;23002;52.676;6.432;2023-11-19T09:17:25;22.45;;;4.57;;
37087;SDS011;23002;52.676;6.432;2023-11-19T09:19:52;21.08;;;3.33;;
37087;SDS011;23002;52.676;6.432;2023-11-19T09:22:19;23.60;;;4.15;;
37087;SDS011;23002;52.676;6.432;2023-11-19T09:24:47;25.45;;;2.72;;
37087;SDS011;23002;52.676;6.432;2023-11-19T09:27:14;22.90;;;3.47;;
37087;SDS011;23002;52.676;6.432;2023-11-19T09:29:41;17.88;;;3.47;;
37087;SDS011;23002;52.676;6.432;2023-11-19T09:32:09;20.38;;;3.05;;
37087;SDS011;23002;52.676;6.432;2023-11-19T09:34:36;22.73;;;3.53;;
37087;SDS011;23002;52.676;6.432;2023-11-19T09:37:03;19.60;;;3.22;;
37087;SDS011;23002;52.676;6.432;2023-11-19T09:39:47;37.55;;;3.88;;
37087;SDS011;23002;52.676;6.432;2023-11-19T09:42:14;23.92;;;4.43;;
37087;SDS011;23002;52.676;6.432;2023-11-19T09:44:42;15.23;;;3.15;;
37087;SDS011;23002;52.676;6.432;2023-11-19T09:47:10;25.25;;;3.33;;
37087;SDS011;23002;52.676;6.432;2023-11-19T09:49:39;23.42;;;4.38;;
37087;SDS011;23002;52.676;6.432;2023-11-19T09:52:06;22.83;;;3.30;;
37087;SDS011;23002;52.676;6.432;2023-11-19T09:54:33;18.42;;;3.40;;
37087;SDS011;23002;52.676;6.432;2023-11-19T09:57:00;17.05;;;3.47;;
37087;SDS011;23002;52.676;6.432;2023-11-19T09:59:31;23.20;;;3.92;;
37087;SDS011;23002;52.676;6.432;2023-11-19T10:01:59;29.75;;;3.40;;
37087;SDS011;23002;52.676;6.432;2023-11-19T10:04:29;19.50;;;2.80;;
37087;SDS011;23002;52.676;6.432;2023-11-19T10:06:57;25.33;;;4.00;;
37087;SDS011;23002;52.676;6.432;2023-11-19T10:09:24;21.05;;;3.78;;
37087;SDS011;23002;52.676;6.432;2023-11-19T10:11:51;22.48;;;4.53;;
37087;SDS011;23002;52.676;6.432;2023-11-19T10:14:22;27.52;;;3.80;;
37087;SDS011;23002;52.676;6.432;2023-11-19T10:19:20;27.80;;;4.65;;
37087;SDS011;23002;52.676;6.432;2023-11-19T10:21:47;21.05;;;3.88;;
37087;SDS011;23002;52.676;6.432;2023-11-19T10:24:15;21.95;;;3.30;;
37087;SDS011;23002;52.676;6.432;2023-11-19T10:26:45;31.00;;;4.65;;
37087;SDS011;23002;52.676;6.432;2023-11-19T10:29:12;22.90;;;3.78;;
37087;SDS011;23002;52.676;6.432;2023-11-19T10:31:41;28.60;;;4.85;;
37087;SDS011;23002;52.676;6.432;2023-11-19T10:34:25;26.65;;;4.95;;
37087;SDS011;23002;52.676;6.432;2023-11-19T10:36:53;28.20;;;3.65;;
37087;SDS011;23002;52.676;6.432;2023-11-19T10:39:20;25.70;;;4.00;;
37087;SDS011;23002;52.676;6.432;2023-11-19T10:41:47;22.23;;;3.83;;
37087;SDS011;23002;52.676;6.432;2023-11-19T10:44:33;23.40;;;3.88;;
37087;SDS011;23002;52.676;6.432;2023-11-19T10:47:02;22.40;;;4.05;;
37087;SDS011;23002;52.676;6.432;2023-11-19T10:49:32;18.98;;;3.53;;
37087;SDS011;23002;52.676;6.432;2023-11-19T10:52:01;21.02;;;3.22;;
37087;SDS011;23002;52.676;6.432;2023-11-19T10:54:29;19.90;;;2.70;;
37087;SDS011;23002;52.676;6.432;2023-11-19T10:56:58;19.73;;;3.75;;
37087;SDS011;23002;52.676;6.432;2023-11-19T10:59:30;20.25;;;4.03;;
37087;SDS011;23002;52.676;6.432;2023-11-19T11:02:03;23.00;;;3.35;;
37087;SDS011;23002;52.676;6.432;2023-11-19T11:04:33;20.55;;;4.13;;
37087;SDS011;23002;52.676;6.432;2023-11-19T11:07:08;30.13;;;4.05;;
37087;SDS011;23002;52.676;6.432;2023-11-19T11:09:35;22.63;;;4.75;;
37087;SDS011;23002;52.676;6.432;2023-11-19T11:12:03;23.15;;;4.63;;
37087;SDS011;23002;52.676;6.432;2023-11-19T11:14:30;22.10;;;3.55;;
37087;SDS011;23002;52.676;6.432;2023-11-19T11:16:59;28.27;;;4.65;;
37087;SDS011;23002;52.676;6.432;2023-11-19T11:19:27;28.63;;;4.07;;
37087;SDS011;23002;52.676;6.432;2023-11-19T11:21:54;26.20;;;4.53;;
37087;SDS011;23002;52.676;6.432;2023-11-19T11:25:00;32.50;;;3.78;;
37087;SDS011;23002;52.676;6.432;2023-11-19T11:35:12;20.88;;;3.58;;
37087;SDS011;23002;52.676;6.432;2023-11-19T11:37:46;28.25;;;3.55;;
37087;SDS011;23002;52.676;6.432;2023-11-19T11:40:14;28.25;;;3.92;;
37087;SDS011;23002;52.676;6.432;2023-11-19T11:42:42;32.00;;;3.50;;
37087;SDS011;23002;52.676;6.432;2023-11-19T11:45:11;22.98;;;3.90;;
37087;SDS011;23002;52.676;6.432;2023-11-19T11:53:13;22.08;;;3.22;;
37087;SDS011;23002;52.676;6.432;2023-11-19T11:58:17;24.40;;;3.67;;
37087;SDS011;23002;52.676;6.432;2023-11-19T12:00:45;22.17;;;3.20;;
37087;SDS011;23002;52.676;6.432;2023-11-19T12:03:13;24.08;;;4.22;;
37087;SDS011;23002;52.676;6.432;2023-11-19T12:05:41;32.97;;;4.15;;
37087;SDS011;23002;52.676;6.432;2023-11-19T12:08:12;28.17;;;4.20;;
37087;SDS011;23002;52.676;6.432;2023-11-19T12:10:49;27.67;;;4.03;;
37087;SDS011;23002;52.676;6.432;2023-11-19T12:13:16;23.30;;;4.38;;
37087;SDS011;23002;52.676;6.432;2023-11-19T12:18:27;28.15;;;3.92;;
37087;SDS011;23002;52.676;6.432;2023-11-19T12:20:55;25.35;;;4.55;;
37087;SDS011;23002;52.676;6.432;2023-11-19T12:23:23;26.30;;;3.35;;
37087;SDS011;23002;52.676;6.432;2023-11-19T12:25:50;26.80;;;3.95;;
37087;SDS011;23002;52.676;6.432;2023-11-19T12:28:17;20.38;;;4.65;;
37087;SDS011;23002;52.676;6.432;2023-11-19T12:30:45;28.02;;;3.35;;
37087;SDS011;23002;52.676;6.432;2023-11-19T12:33:13;22.02;;;3.17;;
37087;SDS011;23002;52.676;6.432;2023-11-19T12:38:09;26.65;;;3.38;;
37087;SDS011;23002;52.676;6.432;2023-11-19T12:40:44;25.38;;;3.85;;
37087;SDS011;23002;52.676;6.432;2023-11-19T12:43:20;19.42;;;4.03;;
37087;SDS011;23002;52.676;6.432;2023-11-19T12:45:48;18.02;;;3.67;;
37087;SDS011;23002;52.676;6.432;2023-11-19T12:48:15;24.92;;;4.35;;
37087;SDS011;23002;52.676;6.432;2023-11-19T12:50:53;21.95;;;4.00;;
37087;SDS011;23002;52.676;6.432;2023-11-19T12:53:20;20.25;;;3.10;;
37087;SDS011;23002;52.676;6.432;2023-11-19T12:55:48;23.38;;;3.53;;
37087;SDS011;23002;52.676;6.432;2023-11-19T12:58:31;16.55;;;2.83;;
37087;SDS011;23002;52.676;6.432;2023-11-19T13:00:59;24.17;;;3.33;;
37087;SDS011;23002;52.676;6.432;2023-11-19T13:03:34;21.55;;;3.60;;
37087;SDS011;23002;52.676;6.432;2023-11-19T13:06:08;18.70;;;3.63;;
37087;SDS011;23002;52.676;6.432;2023-11-19T13:08:44;19.88;;;3.03;;
37087;SDS011;23002;52.676;6.432;2023-11-19T13:11:12;15.00;;;3.55;;
37087;SDS011;23002;52.676;6.432;2023-11-19T13:13:56;31.77;;;3.75;;
37087;SDS011;23002;52.676;6.432;2023-11-19T13:16:23;22.65;;;3.35;;
37087;SDS011;23002;52.676;6.432;2023-11-19T13:18:52;15.02;;;3.10;;
37087;SDS011;23002;52.676;6.432;2023-11-19T13:21:19;19.15;;;3.10;;
37087;SDS011;23002;52.676;6.432;2023-11-19T13:23:46;16.20;;;2.80;;
37087;SDS011;23002;52.676;6.432;2023-11-19T13:26:13;16.02;;;2.50;;
37087;SDS011;23002;52.676;6.432;2023-11-19T13:28:40;24.60;;;2.95;;
37087;SDS011;23002;52.676;6.432;2023-11-19T13:31:08;16.08;;;3.00;;
37087;SDS011;23002;52.676;6.432;2023-11-19T13:33:37;17.55;;;3.08;;
37087;SDS011;23002;52.676;6.432;2023-11-19T13:36:04;22.60;;;2.80;;
37087;SDS011;23002;52.676;6.432;2023-11-19T13:38:33;16.67;;;2.78;;
37087;SDS011;23002;52.676;6.432;2023-11-19T13:41:04;21.70;;;2.92;;
37087;SDS011;23002;52.676;6.432;2023-11-19T13:43:31;19.25;;;2.47;;
37087;SDS011;23002;52.676;6.432;2023-11-19T13:45:58;16.60;;;2.47;;
37087;SDS011;23002;52.676;6.432;2023-11-19T13:48:26;22.27;;;3.15;;
37087;SDS011;23002;52.676;6.432;2023-11-19T13:50:55;25.42;;;3.00;;
37087;SDS011;23002;52.676;6.432;2023-11-19T13:53:22;21.88;;;2.25;;
37087;SDS011;23002;52.676;6.432;2023-11-19T13:55:50;21.60;;;3.88;;
37087;SDS011;23002;52.676;6.432;2023-11-19T13:58:17;21.65;;;3.20;;
37087;SDS011;23002;52.676;6.432;2023-11-19T14:00:44;17.60;;;3.13;;
37087;SDS011;23002;52.676;6.432;2023-11-19T14:03:11;18.80;;;3.25;;
37087;SDS011;23002;52.676;6.432;2023-11-19T14:05:39;20.08;;;3.67;;
37087;SDS011;23002;52.676;6.432;2023-11-19T14:08:07;19.98;;;3.15;;
37087;SDS011;23002;52.676;6.432;2023-11-19T14:10:49;19.85;;;3.40;;
37087;SDS011;23002;52.676;6.432;2023-11-19T14:13:16;23.17;;;3.38;;
37087;SDS011;23002;52.676;6.432;2023-11-19T14:15:43;20.02;;;2.67;;
37087;SDS011;23002;52.676;6.432;2023-11-19T14:18:14;18.90;;;2.47;;
37087;SDS011;23002;52.676;6.432;2023-11-19T14:20:41;17.52;;;3.05;;
37087;SDS011;23002;52.676;6.432;2023-11-19T14:23:09;21.33;;;2.90;;
37087;SDS011;23002;52.676;6.432;2023-11-19T14:25:36;15.35;;;2.38;;
37087;SDS011;23002;52.676;6.432;2023-11-19T14:28:03;20.90;;;3.03;;
37087;SDS011;23002;52.676;6.432;2023-11-19T14:30:32;17.17;;;2.08;;
37087;SDS011;23002;52.676;6.432;2023-11-19T14:33:00;18.67;;;2.90;;
37087;SDS011;23002;52.676;6.432;2023-11-19T14:35:29;13.55;;;2.47;;
37087;SDS011;23002;52.676;6.432;2023-11-19T14:37:57;16.33;;;2.70;;
37087;SDS011;23002;52.676;6.432;2023-11-19T14:40:24;21.85;;;2.75;;
37087;SDS011;23002;52.676;6.432;2023-11-19T14:42:54;14.80;;;2.65;;
37087;SDS011;23002;52.676;6.432;2023-11-19T14:45:21;15.07;;;2.45;;
37087;SDS011;23002;52.676;6.432;2023-11-19T14:47:49;22.73;;;3.03;;
37087;SDS011;23002;52.676;6.432;2023-11-19T14:50:16;15.95;;;2.20;;
37087;SDS011;23002;52.676;6.432;2023-11-19T14:52:43;19.67;;;3.03;;
37087;SDS011;23002;52.676;6.432;2023-11-19T14:55:10;21.80;;;2.83;;
37087;SDS011;23002;52.676;6.432;2023-11-19T14:57:38;20.05;;;3.08;;
37087;SDS011;23002;52.676;6.432;2023-11-19T15:00:06;21.35;;;2.85;;
37087;SDS011;23002;52.676;6.432;2023-11-19T15:02:40;20.33;;;2.90;;
37087;SDS011;23002;52.676;6.432;2023-11-19T15:05:08;20.33;;;2.83;;
37087;SDS011;23002;52.676;6.432;2023-11-19T15:07:38;14.90;;;2.00;;